Cottonville, North Carolina
Current Conditions -  °F | °C
As of 12:15 PM on Thursday 18 Dec 2014 (Local Time) from KVUJ Reporting Station
Overcast Overcast  
Wind Chill:   Ceiling: 10000
Heat Index:   Visibility: 10mi
Dew Point: -3°   Wind: 0mph
Humidity: 44%   Direction: NA
Pressure: 30.19"   Gusts: NA
Location:  35.2152°N, 80.1663°W
Report Text: KVUJ 181715Z AUTO 00000KT 10SM OVC100 09/M03 A3019 RMK AO2 T00901028
Loading
Personal Weather Stations






























Interactive Weather Map New forecast layout! Learn more

10-Day Weather Forecast

Advertisements
Track Severe Weather on mobile